sensor_id;sensor_type;location;lat;lon;timestamp;P1;durP1;ratioP1;P2;durP2;ratioP2
65759;SDS011;52496;51.082;5.066;2022-11-20T00:00:13;24.70;;;12.77;;
65759;SDS011;52496;51.082;5.066;2022-11-20T00:02:44;23.95;;;13.18;;
65759;SDS011;52496;51.082;5.066;2022-11-20T00:05:15;24.20;;;12.57;;
65759;SDS011;52496;51.082;5.066;2022-11-20T00:07:45;24.83;;;12.90;;
65759;SDS011;52496;51.082;5.066;2022-11-20T00:10:16;24.90;;;12.32;;
65759;SDS011;52496;51.082;5.066;2022-11-20T00:12:47;25.25;;;12.40;;
65759;SDS011;52496;51.082;5.066;2022-11-20T00:15:17;28.00;;;13.30;;
65759;SDS011;52496;51.082;5.066;2022-11-20T00:17:48;29.92;;;14.60;;
65759;SDS011;52496;51.082;5.066;2022-11-20T00:20:18;25.63;;;14.15;;
65759;SDS011;52496;51.082;5.066;2022-11-20T00:22:49;26.65;;;12.80;;
65759;SDS011;52496;51.082;5.066;2022-11-20T00:25:20;25.38;;;12.98;;
65759;SDS011;52496;51.082;5.066;2022-11-20T00:27:51;25.73;;;13.07;;
65759;SDS011;52496;51.082;5.066;2022-11-20T00:30:21;23.65;;;12.80;;
65759;SDS011;52496;51.082;5.066;2022-11-20T00:32:52;26.13;;;13.80;;
65759;SDS011;52496;51.082;5.066;2022-11-20T00:35:22;24.92;;;13.27;;
65759;SDS011;52496;51.082;5.066;2022-11-20T00:37:53;26.60;;;12.77;;
65759;SDS011;52496;51.082;5.066;2022-11-20T00:40:23;27.77;;;13.77;;
65759;SDS011;52496;51.082;5.066;2022-11-20T00:42:54;24.00;;;13.88;;
65759;SDS011;52496;51.082;5.066;2022-11-20T00:45:24;22.83;;;12.95;;
65759;SDS011;52496;51.082;5.066;2022-11-20T00:47:55;24.73;;;13.45;;
65759;SDS011;52496;51.082;5.066;2022-11-20T00:50:25;23.50;;;12.30;;
65759;SDS011;52496;51.082;5.066;2022-11-20T00:52:56;25.55;;;13.80;;
65759;SDS011;52496;51.082;5.066;2022-11-20T00:55:26;25.30;;;12.35;;
65759;SDS011;52496;51.082;5.066;2022-11-20T00:57:57;22.27;;;12.43;;
65759;SDS011;52496;51.082;5.066;2022-11-20T01:00:27;21.88;;;13.20;;
65759;SDS011;52496;51.082;5.066;2022-11-20T01:02:59;25.02;;;13.55;;
65759;SDS011;52496;51.082;5.066;2022-11-20T01:05:33;23.90;;;12.40;;
65759;SDS011;52496;51.082;5.066;2022-11-20T01:08:05;24.60;;;13.05;;
65759;SDS011;52496;51.082;5.066;2022-11-20T01:10:35;20.02;;;12.48;;
65759;SDS011;52496;51.082;5.066;2022-11-20T01:13:06;26.60;;;13.65;;
65759;SDS011;52496;51.082;5.066;2022-11-20T01:16:01;28.48;;;13.48;;
65759;SDS011;52496;51.082;5.066;2022-11-20T01:18:33;22.48;;;12.18;;
65759;SDS011;52496;51.082;5.066;2022-11-20T01:21:14;23.45;;;13.02;;
65759;SDS011;52496;51.082;5.066;2022-11-20T01:23:49;27.75;;;13.80;;
65759;SDS011;52496;51.082;5.066;2022-11-20T01:26:22;23.55;;;13.00;;
65759;SDS011;52496;51.082;5.066;2022-11-20T01:28:58;26.13;;;13.77;;
65759;SDS011;52496;51.082;5.066;2022-11-20T01:31:31;21.52;;;11.30;;
65759;SDS011;52496;51.082;5.066;2022-11-20T01:34:04;25.08;;;13.25;;
65759;SDS011;52496;51.082;5.066;2022-11-20T01:36:37;22.75;;;12.80;;
65759;SDS011;52496;51.082;5.066;2022-11-20T01:39:13;24.67;;;13.05;;
65759;SDS011;52496;51.082;5.066;2022-11-20T01:41:50;25.70;;;13.32;;
65759;SDS011;52496;51.082;5.066;2022-11-20T01:44:50;24.45;;;13.20;;
65759;SDS011;52496;51.082;5.066;2022-11-20T01:50:15;21.20;;;12.05;;
65759;SDS011;52496;51.082;5.066;2022-11-20T01:52:58;26.52;;;13.77;;
65759;SDS011;52496;51.082;5.066;2022-11-20T01:55:32;23.90;;;12.93;;
65759;SDS011;52496;51.082;5.066;2022-11-20T01:58:06;22.20;;;12.27;;
65759;SDS011;52496;51.082;5.066;2022-11-20T02:00:38;22.58;;;12.63;;
65759;SDS011;52496;51.082;5.066;2022-11-20T02:03:09;25.50;;;12.60;;
65759;SDS011;52496;51.082;5.066;2022-11-20T02:08:33;23.40;;;13.05;;
65759;SDS011;52496;51.082;5.066;2022-11-20T02:11:04;23.67;;;13.05;;
65759;SDS011;52496;51.082;5.066;2022-11-20T02:13:35;25.13;;;12.57;;
65759;SDS011;52496;51.082;5.066;2022-11-20T02:18:51;23.83;;;13.93;;
65759;SDS011;52496;51.082;5.066;2022-11-20T02:24:09;23.67;;;12.82;;
65759;SDS011;52496;51.082;5.066;2022-11-20T02:26:45;23.80;;;11.57;;
65759;SDS011;52496;51.082;5.066;2022-11-20T02:29:25;23.70;;;12.13;;
65759;SDS011;52496;51.082;5.066;2022-11-20T02:31:58;23.20;;;12.45;;
65759;SDS011;52496;51.082;5.066;2022-11-20T02:34:31;21.73;;;12.05;;
65759;SDS011;52496;51.082;5.066;2022-11-20T02:37:02;22.92;;;12.73;;
65759;SDS011;52496;51.082;5.066;2022-11-20T02:39:32;25.42;;;13.77;;
65759;SDS011;52496;51.082;5.066;2022-11-20T02:42:03;23.67;;;13.63;;
65759;SDS011;52496;51.082;5.066;2022-11-20T02:44:34;27.55;;;13.15;;
65759;SDS011;52496;51.082;5.066;2022-11-20T02:47:04;24.15;;;13.35;;
65759;SDS011;52496;51.082;5.066;2022-11-20T02:49:35;26.70;;;13.18;;
65759;SDS011;52496;51.082;5.066;2022-11-20T02:52:05;25.17;;;13.48;;
65759;SDS011;52496;51.082;5.066;2022-11-20T02:54:36;25.63;;;13.50;;
65759;SDS011;52496;51.082;5.066;2022-11-20T02:57:07;22.27;;;12.50;;
65759;SDS011;52496;51.082;5.066;2022-11-20T02:59:37;23.40;;;13.45;;
65759;SDS011;52496;51.082;5.066;2022-11-20T03:02:08;24.60;;;12.88;;
65759;SDS011;52496;51.082;5.066;2022-11-20T03:04:38;24.95;;;13.68;;
65759;SDS011;52496;51.082;5.066;2022-11-20T03:07:09;25.60;;;13.70;;
65759;SDS011;52496;51.082;5.066;2022-11-20T03:09:39;26.13;;;14.27;;
65759;SDS011;52496;51.082;5.066;2022-11-20T03:12:10;27.80;;;14.55;;
65759;SDS011;52496;51.082;5.066;2022-11-20T03:14:40;24.77;;;12.68;;
65759;SDS011;52496;51.082;5.066;2022-11-20T03:17:11;24.23;;;13.00;;
65759;SDS011;52496;51.082;5.066;2022-11-20T03:19:42;21.73;;;13.02;;
65759;SDS011;52496;51.082;5.066;2022-11-20T03:22:12;24.77;;;14.45;;
65759;SDS011;52496;51.082;5.066;2022-11-20T03:24:43;29.90;;;13.85;;
65759;SDS011;52496;51.082;5.066;2022-11-20T03:27:13;25.48;;;14.00;;
65759;SDS011;52496;51.082;5.066;2022-11-20T03:29:44;26.30;;;14.77;;
65759;SDS011;52496;51.082;5.066;2022-11-20T03:32:14;24.90;;;13.57;;
65759;SDS011;52496;51.082;5.066;2022-11-20T03:34:45;24.80;;;13.63;;
65759;SDS011;52496;51.082;5.066;2022-11-20T03:37:15;25.17;;;13.63;;
65759;SDS011;52496;51.082;5.066;2022-11-20T03:39:46;23.83;;;12.90;;
65759;SDS011;52496;51.082;5.066;2022-11-20T03:42:16;21.90;;;13.35;;
65759;SDS011;52496;51.082;5.066;2022-11-20T03:45:05;25.67;;;14.40;;
65759;SDS011;52496;51.082;5.066;2022-11-20T03:47:36;24.35;;;13.07;;
65759;SDS011;52496;51.082;5.066;2022-11-20T03:50:08;24.67;;;13.25;;
65759;SDS011;52496;51.082;5.066;2022-11-20T03:52:39;27.90;;;14.45;;
65759;SDS011;52496;51.082;5.066;2022-11-20T03:55:10;22.40;;;13.82;;
65759;SDS011;52496;51.082;5.066;2022-11-20T03:57:41;25.85;;;14.85;;
65759;SDS011;52496;51.082;5.066;2022-11-20T04:00:11;24.20;;;13.63;;
65759;SDS011;52496;51.082;5.066;2022-11-20T04:02:43;28.60;;;13.88;;
65759;SDS011;52496;51.082;5.066;2022-11-20T04:05:13;25.30;;;14.80;;
65759;SDS011;52496;51.082;5.066;2022-11-20T04:07:44;25.15;;;13.98;;
65759;SDS011;52496;51.082;5.066;2022-11-20T04:10:14;24.27;;;13.38;;
65759;SDS011;52496;51.082;5.066;2022-11-20T04:12:45;25.42;;;13.57;;
65759;SDS011;52496;51.082;5.066;2022-11-20T04:15:16;22.48;;;13.55;;
65759;SDS011;52496;51.082;5.066;2022-11-20T04:17:46;25.45;;;13.90;;
65759;SDS011;52496;51.082;5.066;2022-11-20T04:20:16;27.27;;;14.35;;
65759;SDS011;52496;51.082;5.066;2022-11-20T04:22:47;27.70;;;14.43;;
65759;SDS011;52496;51.082;5.066;2022-11-20T04:25:17;23.75;;;13.23;;
65759;SDS011;52496;51.082;5.066;2022-11-20T04:27:48;25.52;;;13.48;;
65759;SDS011;52496;51.082;5.066;2022-11-20T04:30:18;23.40;;;13.60;;
65759;SDS011;52496;51.082;5.066;2022-11-20T04:32:49;27.13;;;14.07;;
65759;SDS011;52496;51.082;5.066;2022-11-20T04:35:19;27.40;;;14.13;;
65759;SDS011;52496;51.082;5.066;2022-11-20T04:37:53;25.08;;;13.40;;
65759;SDS011;52496;51.082;5.066;2022-11-20T04:40:23;29.25;;;14.45;;
65759;SDS011;52496;51.082;5.066;2022-11-20T04:42:54;24.20;;;13.35;;
65759;SDS011;52496;51.082;5.066;2022-11-20T04:45:25;27.20;;;14.57;;
65759;SDS011;52496;51.082;5.066;2022-11-20T04:47:55;30.65;;;13.82;;
65759;SDS011;52496;51.082;5.066;2022-11-20T04:50:26;26.73;;;14.35;;
65759;SDS011;52496;51.082;5.066;2022-11-20T04:52:57;24.08;;;13.07;;
65759;SDS011;52496;51.082;5.066;2022-11-20T04:55:27;25.58;;;14.93;;
65759;SDS011;52496;51.082;5.066;2022-11-20T04:57:58;30.05;;;14.60;;
65759;SDS011;52496;51.082;5.066;2022-11-20T05:00:28;25.50;;;14.80;;
65759;SDS011;52496;51.082;5.066;2022-11-20T05:02:59;26.52;;;14.38;;
65759;SDS011;52496;51.082;5.066;2022-11-20T05:05:30;23.55;;;13.70;;
65759;SDS011;52496;51.082;5.066;2022-11-20T05:08:01;27.70;;;14.18;;
65759;SDS011;52496;51.082;5.066;2022-11-20T05:10:31;24.63;;;13.80;;
65759;SDS011;52496;51.082;5.066;2022-11-20T05:13:04;23.73;;;13.35;;
65759;SDS011;52496;51.082;5.066;2022-11-20T05:15:35;25.17;;;14.27;;
65759;SDS011;52496;51.082;5.066;2022-11-20T05:18:05;25.70;;;14.25;;
65759;SDS011;52496;51.082;5.066;2022-11-20T05:20:36;25.23;;;14.50;;
65759;SDS011;52496;51.082;5.066;2022-11-20T05:23:06;26.58;;;14.20;;
65759;SDS011;52496;51.082;5.066;2022-11-20T05:25:37;29.88;;;15.27;;
65759;SDS011;52496;51.082;5.066;2022-11-20T05:28:07;27.02;;;15.10;;
65759;SDS011;52496;51.082;5.066;2022-11-20T05:30:38;26.35;;;13.90;;
65759;SDS011;52496;51.082;5.066;2022-11-20T05:33:08;27.42;;;14.75;;
65759;SDS011;52496;51.082;5.066;2022-11-20T05:35:39;28.98;;;14.95;;
65759;SDS011;52496;51.082;5.066;2022-11-20T05:38:10;27.83;;;13.80;;
65759;SDS011;52496;51.082;5.066;2022-11-20T05:40:40;26.92;;;14.90;;
65759;SDS011;52496;51.082;5.066;2022-11-20T05:43:11;25.73;;;14.27;;
65759;SDS011;52496;51.082;5.066;2022-11-20T05:45:41;27.15;;;14.18;;
65759;SDS011;52496;51.082;5.066;2022-11-20T05:48:12;31.98;;;15.18;;
65759;SDS011;52496;51.082;5.066;2022-11-20T05:50:42;33.97;;;16.92;;
65759;SDS011;52496;51.082;5.066;2022-11-20T05:53:13;30.60;;;15.40;;
65759;SDS011;52496;51.082;5.066;2022-11-20T05:55:43;29.83;;;14.88;;
65759;SDS011;52496;51.082;5.066;2022-11-20T05:58:14;30.77;;;15.05;;
65759;SDS011;52496;51.082;5.066;2022-11-20T06:00:45;38.05;;;16.58;;
65759;SDS011;52496;51.082;5.066;2022-11-20T06:03:15;30.50;;;15.02;;
65759;SDS011;52496;51.082;5.066;2022-11-20T06:05:46;36.58;;;18.17;;
65759;SDS011;52496;51.082;5.066;2022-11-20T06:08:16;31.75;;;15.48;;
65759;SDS011;52496;51.082;5.066;2022-11-20T06:10:47;30.60;;;16.20;;
65759;SDS011;52496;51.082;5.066;2022-11-20T06:13:17;33.30;;;17.55;;
65759;SDS011;52496;51.082;5.066;2022-11-20T06:15:49;38.38;;;18.15;;
65759;SDS011;52496;51.082;5.066;2022-11-20T06:18:20;34.95;;;16.58;;
65759;SDS011;52496;51.082;5.066;2022-11-20T06:20:58;37.33;;;18.42;;
65759;SDS011;52496;51.082;5.066;2022-11-20T06:23:33;37.83;;;18.15;;
65759;SDS011;52496;51.082;5.066;2022-11-20T06:26:09;35.13;;;18.05;;
65759;SDS011;52496;51.082;5.066;2022-11-20T06:28:41;34.45;;;17.25;;
65759;SDS011;52496;51.082;5.066;2022-11-20T06:31:12;35.97;;;17.67;;
65759;SDS011;52496;51.082;5.066;2022-11-20T06:33:44;34.88;;;17.40;;
65759;SDS011;52496;51.082;5.066;2022-11-20T06:36:15;33.22;;;16.10;;
65759;SDS011;52496;51.082;5.066;2022-11-20T06:38:48;34.50;;;16.77;;
65759;SDS011;52496;51.082;5.066;2022-11-20T06:41:19;35.42;;;16.95;;
65759;SDS011;52496;51.082;5.066;2022-11-20T06:43:51;33.72;;;17.02;;
65759;SDS011;52496;51.082;5.066;2022-11-20T06:46:22;37.28;;;18.40;;
65759;SDS011;52496;51.082;5.066;2022-11-20T06:48:53;35.78;;;16.50;;
65759;SDS011;52496;51.082;5.066;2022-11-20T06:51:23;36.25;;;17.10;;
65759;SDS011;52496;51.082;5.066;2022-11-20T06:53:54;38.17;;;17.77;;
65759;SDS011;52496;51.082;5.066;2022-11-20T06:56:24;37.53;;;18.27;;
65759;SDS011;52496;51.082;5.066;2022-11-20T06:58:55;37.53;;;17.85;;
65759;SDS011;52496;51.082;5.066;2022-11-20T07:01:25;35.78;;;17.90;;
65759;SDS011;52496;51.082;5.066;2022-11-20T07:03:56;42.65;;;19.17;;
65759;SDS011;52496;51.082;5.066;2022-11-20T07:06:26;40.30;;;18.33;;
65759;SDS011;52496;51.082;5.066;2022-11-20T07:08:57;35.92;;;17.42;;
65759;SDS011;52496;51.082;5.066;2022-11-20T07:11:27;40.67;;;20.17;;
65759;SDS011;52496;51.082;5.066;2022-11-20T07:13:58;41.72;;;18.33;;
65759;SDS011;52496;51.082;5.066;2022-11-20T07:16:29;39.30;;;18.98;;
65759;SDS011;52496;51.082;5.066;2022-11-20T07:18:59;35.38;;;17.27;;
65759;SDS011;52496;51.082;5.066;2022-11-20T07:21:30;41.38;;;18.77;;
65759;SDS011;52496;51.082;5.066;2022-11-20T07:24:01;39.50;;;18.50;;
65759;SDS011;52496;51.082;5.066;2022-11-20T07:26:31;42.85;;;19.60;;
65759;SDS011;52496;51.082;5.066;2022-11-20T07:29:02;33.08;;;17.50;;
65759;SDS011;52496;51.082;5.066;2022-11-20T07:31:32;35.70;;;18.38;;
65759;SDS011;52496;51.082;5.066;2022-11-20T07:34:03;40.47;;;19.73;;
65759;SDS011;52496;51.082;5.066;2022-11-20T07:36:33;45.35;;;19.58;;
65759;SDS011;52496;51.082;5.066;2022-11-20T07:39:04;40.83;;;19.75;;
65759;SDS011;52496;51.082;5.066;2022-11-20T07:41:35;46.10;;;18.70;;
65759;SDS011;52496;51.082;5.066;2022-11-20T07:44:05;44.45;;;19.63;;
65759;SDS011;52496;51.082;5.066;2022-11-20T07:46:37;42.88;;;19.75;;
65759;SDS011;52496;51.082;5.066;2022-11-20T07:49:07;46.22;;;22.10;;
65759;SDS011;52496;51.082;5.066;2022-11-20T07:51:38;44.28;;;20.98;;
65759;SDS011;52496;51.082;5.066;2022-11-20T07:54:08;45.90;;;20.25;;
65759;SDS011;52496;51.082;5.066;2022-11-20T07:56:39;45.40;;;21.00;;
65759;SDS011;52496;51.082;5.066;2022-11-20T07:59:09;49.63;;;18.23;;
65759;SDS011;52496;51.082;5.066;2022-11-20T08:01:42;45.40;;;20.25;;
65759;SDS011;52496;51.082;5.066;2022-11-20T08:04:12;45.33;;;19.40;;
65759;SDS011;52496;51.082;5.066;2022-11-20T08:06:45;46.80;;;21.73;;
65759;SDS011;52496;51.082;5.066;2022-11-20T08:09:16;45.53;;;19.98;;
65759;SDS011;52496;51.082;5.066;2022-11-20T08:11:46;42.83;;;20.88;;
65759;SDS011;52496;51.082;5.066;2022-11-20T08:14:35;46.45;;;20.75;;
65759;SDS011;52496;51.082;5.066;2022-11-20T08:17:06;53.22;;;20.75;;
65759;SDS011;52496;51.082;5.066;2022-11-20T08:19:37;47.30;;;20.88;;
65759;SDS011;52496;51.082;5.066;2022-11-20T08:22:08;45.10;;;21.65;;
65759;SDS011;52496;51.082;5.066;2022-11-20T08:24:38;43.22;;;20.17;;
65759;SDS011;52496;51.082;5.066;2022-11-20T08:27:09;44.95;;;19.33;;
65759;SDS011;52496;51.082;5.066;2022-11-20T08:29:39;44.10;;;20.00;;
65759;SDS011;52496;51.082;5.066;2022-11-20T08:32:10;43.65;;;19.67;;
65759;SDS011;52496;51.082;5.066;2022-11-20T08:34:40;42.72;;;19.77;;
65759;SDS011;52496;51.082;5.066;2022-11-20T08:37:11;43.13;;;18.88;;
65759;SDS011;52496;51.082;5.066;2022-11-20T08:39:42;40.58;;;20.38;;
65759;SDS011;52496;51.082;5.066;2022-11-20T08:42:12;45.15;;;20.70;;
65759;SDS011;52496;51.082;5.066;2022-11-20T08:44:43;40.70;;;19.15;;
65759;SDS011;52496;51.082;5.066;2022-11-20T08:47:13;42.30;;;19.58;;
65759;SDS011;52496;51.082;5.066;2022-11-20T08:49:44;45.95;;;20.92;;
65759;SDS011;52496;51.082;5.066;2022-11-20T08:52:14;43.80;;;19.33;;
65759;SDS011;52496;51.082;5.066;2022-11-20T08:54:45;44.42;;;20.88;;
65759;SDS011;52496;51.082;5.066;2022-11-20T08:57:16;41.40;;;19.88;;
65759;SDS011;52496;51.082;5.066;2022-11-20T08:59:46;38.58;;;17.73;;
65759;SDS011;52496;51.082;5.066;2022-11-20T09:02:17;47.47;;;20.58;;
65759;SDS011;52496;51.082;5.066;2022-11-20T09:04:48;47.47;;;19.70;;
65759;SDS011;52496;51.082;5.066;2022-11-20T09:07:18;42.80;;;18.23;;
65759;SDS011;52496;51.082;5.066;2022-11-20T09:09:49;40.38;;;18.67;;
65759;SDS011;52496;51.082;5.066;2022-11-20T09:12:20;42.13;;;20.30;;
65759;SDS011;52496;51.082;5.066;2022-11-20T09:14:50;45.53;;;20.08;;
65759;SDS011;52496;51.082;5.066;2022-11-20T09:17:21;46.10;;;21.13;;
65759;SDS011;52496;51.082;5.066;2022-11-20T09:19:51;43.20;;;20.13;;
65759;SDS011;52496;51.082;5.066;2022-11-20T09:22:22;44.95;;;19.20;;
65759;SDS011;52496;51.082;5.066;2022-11-20T09:24:52;42.85;;;20.70;;
65759;SDS011;52496;51.082;5.066;2022-11-20T09:27:23;50.30;;;22.40;;
65759;SDS011;52496;51.082;5.066;2022-11-20T09:29:54;52.90;;;25.33;;
65759;SDS011;52496;51.082;5.066;2022-11-20T09:32:24;53.55;;;26.95;;
65759;SDS011;52496;51.082;5.066;2022-11-20T09:34:55;53.25;;;25.98;;
65759;SDS011;52496;51.082;5.066;2022-11-20T09:37:25;66.70;;;32.45;;
65759;SDS011;52496;51.082;5.066;2022-11-20T09:39:56;64.63;;;31.40;;
65759;SDS011;52496;51.082;5.066;2022-11-20T09:56:23;74.30;;;34.30;;
65759;SDS011;52496;51.082;5.066;2022-11-20T09:58:57;67.40;;;32.22;;
65759;SDS011;52496;51.082;5.066;2022-11-20T10:01:33;83.40;;;42.42;;
65759;SDS011;52496;51.082;5.066;2022-11-20T10:04:24;67.07;;;31.95;;
65759;SDS011;52496;51.082;5.066;2022-11-20T10:07:11;76.13;;;38.67;;
65759;SDS011;52496;51.082;5.066;2022-11-20T10:09:51;79.72;;;35.90;;
65759;SDS011;52496;51.082;5.066;2022-11-20T10:15:37;68.47;;;30.75;;
65759;SDS011;52496;51.082;5.066;2022-11-20T10:29:12;88.75;;;37.85;;
65759;SDS011;52496;51.082;5.066;2022-11-20T10:32:00;90.18;;;33.30;;
65759;SDS011;52496;51.082;5.066;2022-11-20T10:34:58;80.40;;;35.88;;
65759;SDS011;52496;51.082;5.066;2022-11-20T10:38:02;90.95;;;47.92;;
65759;SDS011;52496;51.082;5.066;2022-11-20T10:40:46;79.40;;;30.48;;
65759;SDS011;52496;51.082;5.066;2022-11-20T10:43:28;88.47;;;36.90;;
65759;SDS011;52496;51.082;5.066;2022-11-20T10:46:04;66.22;;;28.58;;
65759;SDS011;52496;51.082;5.066;2022-11-20T10:48:39;76.72;;;34.38;;
65759;SDS011;52496;51.082;5.066;2022-11-20T10:51:31;71.00;;;30.05;;
65759;SDS011;52496;51.082;5.066;2022-11-20T10:57:24;66.97;;;26.40;;
65759;SDS011;52496;51.082;5.066;2022-11-20T11:00:07;86.53;;;33.20;;
65759;SDS011;52496;51.082;5.066;2022-11-20T11:02:44;76.25;;;33.13;;
65759;SDS011;52496;51.082;5.066;2022-11-20T11:05:31;73.50;;;30.48;;
65759;SDS011;52496;51.082;5.066;2022-11-20T11:08:14;77.03;;;34.42;;
65759;SDS011;52496;51.082;5.066;2022-11-20T11:13:25;64.10;;;29.55;;
65759;SDS011;52496;51.082;5.066;2022-11-20T11:15:58;65.15;;;28.58;;
65759;SDS011;52496;51.082;5.066;2022-11-20T11:18:29;114.18;;;52.85;;
65759;SDS011;52496;51.082;5.066;2022-11-20T11:21:03;87.95;;;41.97;;
65759;SDS011;52496;51.082;5.066;2022-11-20T11:23:35;64.95;;;29.50;;
65759;SDS011;52496;51.082;5.066;2022-11-20T11:26:20;71.38;;;28.75;;
65759;SDS011;52496;51.082;5.066;2022-11-20T11:28:53;85.43;;;44.60;;
65759;SDS011;52496;51.082;5.066;2022-11-20T11:31:32;81.18;;;39.42;;
65759;SDS011;52496;51.082;5.066;2022-11-20T11:34:06;68.28;;;27.58;;
65759;SDS011;52496;51.082;5.066;2022-11-20T11:36:38;74.50;;;33.88;;
65759;SDS011;52496;51.082;5.066;2022-11-20T11:39:14;83.55;;;43.60;;
65759;SDS011;52496;51.082;5.066;2022-11-20T11:41:47;89.47;;;42.00;;
65759;SDS011;52496;51.082;5.066;2022-11-20T11:44:32;85.65;;;40.92;;
65759;SDS011;52496;51.082;5.066;2022-11-20T11:47:29;70.18;;;32.17;;
65759;SDS011;52496;51.082;5.066;2022-11-20T11:50:15;61.25;;;28.15;;
65759;SDS011;52496;51.082;5.066;2022-11-20T11:56:29;67.28;;;27.95;;
65759;SDS011;52496;51.082;5.066;2022-11-20T12:01:28;60.13;;;28.02;;
65759;SDS011;52496;51.082;5.066;2022-11-20T12:07:13;70.38;;;31.30;;
65759;SDS011;52496;51.082;5.066;2022-11-20T12:09:52;61.58;;;27.83;;
65759;SDS011;52496;51.082;5.066;2022-11-20T12:12:26;49.75;;;26.33;;
65759;SDS011;52496;51.082;5.066;2022-11-20T12:15:01;60.38;;;28.15;;
65759;SDS011;52496;51.082;5.066;2022-11-20T12:17:34;64.47;;;29.33;;
65759;SDS011;52496;51.082;5.066;2022-11-20T12:20:10;53.97;;;24.20;;
65759;SDS011;52496;51.082;5.066;2022-11-20T12:22:55;48.30;;;21.88;;
65759;SDS011;52496;51.082;5.066;2022-11-20T12:25:35;54.53;;;22.95;;
65759;SDS011;52496;51.082;5.066;2022-11-20T12:31:02;43.17;;;19.80;;
65759;SDS011;52496;51.082;5.066;2022-11-20T12:33:48;38.47;;;18.10;;
65759;SDS011;52496;51.082;5.066;2022-11-20T12:46:25;29.65;;;14.10;;
65759;SDS011;52496;51.082;5.066;2022-11-20T12:51:34;39.22;;;17.70;;
65759;SDS011;52496;51.082;5.066;2022-11-20T13:00:34;25.42;;;11.68;;
65759;SDS011;52496;51.082;5.066;2022-11-20T13:06:20;30.90;;;12.80;;
65759;SDS011;52496;51.082;5.066;2022-11-20T13:08:55;29.60;;;13.25;;
65759;SDS011;52496;51.082;5.066;2022-11-20T13:11:33;32.45;;;13.43;;
65759;SDS011;52496;51.082;5.066;2022-11-20T13:14:18;28.13;;;12.95;;
65759;SDS011;52496;51.082;5.066;2022-11-20T13:19:55;26.75;;;10.90;;
65759;SDS011;52496;51.082;5.066;2022-11-20T13:22:31;22.40;;;8.93;;
65759;SDS011;52496;51.082;5.066;2022-11-20T13:25:29;12.63;;;5.47;;
65759;SDS011;52496;51.082;5.066;2022-11-20T13:30:50;13.95;;;4.32;;
65759;SDS011;52496;51.082;5.066;2022-11-20T13:33:32;11.32;;;3.63;;
65759;SDS011;52496;51.082;5.066;2022-11-20T13:36:24;10.77;;;3.50;;
65759;SDS011;52496;51.082;5.066;2022-11-20T13:38:57;8.93;;;3.50;;
65759;SDS011;52496;51.082;5.066;2022-11-20T13:41:35;9.77;;;3.47;;
65759;SDS011;52496;51.082;5.066;2022-11-20T13:44:42;10.48;;;4.10;;
65759;SDS011;52496;51.082;5.066;2022-11-20T13:47:21;8.80;;;3.90;;
65759;SDS011;52496;51.082;5.066;2022-11-20T13:49:55;6.82;;;3.08;;
65759;SDS011;52496;51.082;5.066;2022-11-20T13:55:41;8.35;;;3.08;;
65759;SDS011;52496;51.082;5.066;2022-11-20T13:58:30;6.43;;;3.35;;
65759;SDS011;52496;51.082;5.066;2022-11-20T14:01:20;14.73;;;4.43;;
65759;SDS011;52496;51.082;5.066;2022-11-20T14:03:53;12.00;;;3.63;;
65759;SDS011;52496;51.082;5.066;2022-11-20T14:08:59;9.27;;;3.40;;
65759;SDS011;52496;51.082;5.066;2022-11-20T14:11:30;7.60;;;4.18;;
65759;SDS011;52496;51.082;5.066;2022-11-20T14:14:02;13.55;;;4.97;;
65759;SDS011;52496;51.082;5.066;2022-11-20T14:16:42;10.00;;;3.97;;
65759;SDS011;52496;51.082;5.066;2022-11-20T14:22:08;6.50;;;3.83;;
65759;SDS011;52496;51.082;5.066;2022-11-20T14:25:03;10.63;;;4.85;;
65759;SDS011;52496;51.082;5.066;2022-11-20T14:27:38;9.90;;;4.25;;
65759;SDS011;52496;51.082;5.066;2022-11-20T14:30:17;9.35;;;3.47;;
65759;SDS011;52496;51.082;5.066;2022-11-20T14:32:50;10.10;;;4.43;;
65759;SDS011;52496;51.082;5.066;2022-11-20T14:35:27;10.05;;;4.40;;
65759;SDS011;52496;51.082;5.066;2022-11-20T14:37:59;8.80;;;4.20;;
65759;SDS011;52496;51.082;5.066;2022-11-20T14:40:32;6.80;;;3.60;;
65759;SDS011;52496;51.082;5.066;2022-11-20T14:46:00;10.40;;;4.45;;
65759;SDS011;52496;51.082;5.066;2022-11-20T14:48:46;11.45;;;4.50;;
65759;SDS011;52496;51.082;5.066;2022-11-20T14:51:35;10.98;;;3.42;;
65759;SDS011;52496;51.082;5.066;2022-11-20T14:54:11;11.15;;;4.20;;
65759;SDS011;52496;51.082;5.066;2022-11-20T14:56:57;6.50;;;3.65;;
65759;SDS011;52496;51.082;5.066;2022-11-20T14:59:33;6.00;;;3.45;;
65759;SDS011;52496;51.082;5.066;2022-11-20T15:02:09;9.70;;;4.22;;
65759;SDS011;52496;51.082;5.066;2022-11-20T15:04:48;7.03;;;3.40;;
65759;SDS011;52496;51.082;5.066;2022-11-20T15:07:26;7.50;;;3.47;;
65759;SDS011;52496;51.082;5.066;2022-11-20T15:09:59;9.68;;;3.38;;
65759;SDS011;52496;51.082;5.066;2022-11-20T15:12:47;6.82;;;3.78;;
65759;SDS011;52496;51.082;5.066;2022-11-20T15:16:03;6.15;;;3.60;;
65759;SDS011;52496;51.082;5.066;2022-11-20T15:18:18;6.00;;;3.58;;
65759;SDS011;52496;51.082;5.066;2022-11-20T15:20:51;6.32;;;3.90;;
65759;SDS011;52496;51.082;5.066;2022-11-20T15:23:23;8.00;;;3.90;;
65759;SDS011;52496;51.082;5.066;2022-11-20T15:25:55;8.68;;;4.00;;
65759;SDS011;52496;51.082;5.066;2022-11-20T15:33:41;7.40;;;4.00;;
65759;SDS011;52496;51.082;5.066;2022-11-20T15:36:12;8.07;;;4.63;;
65759;SDS011;52496;51.082;5.066;2022-11-20T15:38:43;9.07;;;4.25;;
65759;SDS011;52496;51.082;5.066;2022-11-20T15:41:14;9.65;;;4.10;;
65759;SDS011;52496;51.082;5.066;2022-11-20T15:43:44;9.85;;;4.70;;
65759;SDS011;52496;51.082;5.066;2022-11-20T15:46:16;10.00;;;5.32;;
65759;SDS011;52496;51.082;5.066;2022-11-20T15:48:54;9.13;;;4.90;;
65759;SDS011;52496;51.082;5.066;2022-11-20T15:51:27;8.07;;;4.93;;
65759;SDS011;52496;51.082;5.066;2022-11-20T15:56:50;8.25;;;4.90;;
65759;SDS011;52496;51.082;5.066;2022-11-20T15:59:23;10.55;;;5.47;;
65759;SDS011;52496;51.082;5.066;2022-11-20T16:01:54;8.25;;;4.85;;
65759;SDS011;52496;51.082;5.066;2022-11-20T16:04:25;8.00;;;4.80;;
65759;SDS011;52496;51.082;5.066;2022-11-20T16:06:56;9.85;;;4.70;;
65759;SDS011;52496;51.082;5.066;2022-11-20T16:09:33;8.95;;;5.28;;
65759;SDS011;52496;51.082;5.066;2022-11-20T16:12:03;9.23;;;5.15;;
65759;SDS011;52496;51.082;5.066;2022-11-20T16:14:34;8.80;;;5.35;;
65759;SDS011;52496;51.082;5.066;2022-11-20T16:17:23;10.68;;;6.10;;
65759;SDS011;52496;51.082;5.066;2022-11-20T16:20:13;11.10;;;5.30;;
65759;SDS011;52496;51.082;5.066;2022-11-20T16:22:44;9.88;;;5.63;;
65759;SDS011;52496;51.082;5.066;2022-11-20T16:25:14;9.45;;;6.07;;
65759;SDS011;52496;51.082;5.066;2022-11-20T16:27:45;10.85;;;5.68;;
65759;SDS011;52496;51.082;5.066;2022-11-20T16:30:24;11.05;;;6.68;;
65759;SDS011;52496;51.082;5.066;2022-11-20T16:32:54;15.85;;;7.03;;
65759;SDS011;52496;51.082;5.066;2022-11-20T16:35:25;10.88;;;6.25;;
65759;SDS011;52496;51.082;5.066;2022-11-20T16:37:59;12.23;;;7.18;;
65759;SDS011;52496;51.082;5.066;2022-11-20T16:40:30;11.88;;;6.32;;
65759;SDS011;52496;51.082;5.066;2022-11-20T16:43:08;12.43;;;6.53;;
65759;SDS011;52496;51.082;5.066;2022-11-20T16:45:41;14.88;;;6.68;;
65759;SDS011;52496;51.082;5.066;2022-11-20T16:48:14;15.75;;;6.88;;